SAM122 KADW-KBNA
Flight info
| Callsign | SAM122 |
|---|---|
| Flight time | 1h 30m |
| Altitude | 40000 |
| Route | JEFSN2 MAULS TONIO CUTRR PASLY5 |
| Aircraft | B737/M-SDE2E3FGHIRWXY/LB1 |
Departure
| Time | 2026-04-25 17:21 |
|---|---|
| Airport | Joint Base Andrews (KADW) |
Arrival
| Time | 2026-04-25 18:52 |
|---|---|
| Airport | Nashville International Airport (KBNA) |
| Time | Latitude | Longitude | Altitude | Speed | Heading |
|---|---|---|---|---|---|
| 2026-04-25 16:45 | 38.80575 | -76.87604 | 275 ft | 0 kts | 1° |
| 2026-04-25 17:01 | 38.80575 | -76.87603 | 275 ft | 0 kts | 1° |
| 2026-04-25 17:02 | 38.80608 | -76.87596 | 275 ft | 8 kts | 29° |
| 2026-04-25 17:02 | 38.80615 | -76.87545 | 274 ft | 6 kts | 92° |
| 2026-04-25 17:02 | 38.80616 | -76.87494 | 274 ft | 6 kts | 88° |
| 2026-04-25 17:02 | 38.80628 | -76.87450 | 277 ft | 6 kts | 31° |
| 2026-04-25 17:03 | 38.80668 | -76.87446 | 274 ft | 6 kts | 359° |
| 2026-04-25 17:03 | 38.80712 | -76.87446 | 278 ft | 8 kts | 359° |
| 2026-04-25 17:03 | 38.80783 | -76.87446 | 276 ft | 12 kts | 1° |
| 2026-04-25 17:03 | 38.80869 | -76.87446 | 278 ft | 12 kts | 359° |
| 2026-04-25 17:04 | 38.80955 | -76.87447 | 277 ft | 12 kts | 1° |
| 2026-04-25 17:04 | 38.81038 | -76.87447 | 277 ft | 12 kts | 360° |
| 2026-04-25 17:04 | 38.81120 | -76.87446 | 279 ft | 12 kts | 0° |
| 2026-04-25 17:04 | 38.81199 | -76.87446 | 281 ft | 11 kts | 359° |
| 2026-04-25 17:05 | 38.81276 | -76.87448 | 285 ft | 11 kts | 359° |
| 2026-04-25 17:05 | 38.81430 | -76.87448 | 285 ft | 13 kts | 359° |
| 2026-04-25 17:05 | 38.81534 | -76.87449 | 286 ft | 16 kts | 359° |
| 2026-04-25 17:06 | 38.81646 | -76.87449 | 285 ft | 16 kts | 0° |
| 2026-04-25 17:06 | 38.81752 | -76.87449 | 284 ft | 15 kts | 0° |
| 2026-04-25 17:06 | 38.81855 | -76.87451 | 285 ft | 15 kts | 359° |
| 2026-04-25 17:06 | 38.81954 | -76.87450 | 286 ft | 14 kts | 0° |
| 2026-04-25 17:07 | 38.82049 | -76.87450 | 287 ft | 13 kts | 360° |
| 2026-04-25 17:07 | 38.82140 | -76.87450 | 288 ft | 13 kts | 359° |
| 2026-04-25 17:07 | 38.82228 | -76.87451 | 286 ft | 13 kts | 0° |
| 2026-04-25 17:07 | 38.82301 | -76.87405 | 290 ft | 12 kts | 59° |
| 2026-04-25 17:08 | 38.82308 | -76.87299 | 292 ft | 11 kts | 89° |
| 2026-04-25 17:08 | 38.82308 | -76.87278 | 292 ft | 0 kts | 89° |
| 2026-04-25 17:19 | 38.82309 | -76.87258 | 294 ft | 5 kts | 89° |
| 2026-04-25 17:19 | 38.82309 | -76.87181 | 294 ft | 12 kts | 90° |
| 2026-04-25 17:20 | 38.82309 | -76.87086 | 294 ft | 7 kts | 92° |
| 2026-04-25 17:20 | 38.82303 | -76.87073 | 294 ft | 1 kts | 146° |
| 2026-04-25 17:20 | 38.82275 | -76.87068 | 294 ft | 7 kts | 181° |
| 2026-04-25 17:20 | 38.82092 | -76.87069 | 294 ft | 64 kts | 180° |
| 2026-04-25 17:21 | 38.81352 | -76.87067 | 279 ft | 143 kts | 181° |
| 2026-04-25 17:21 | 38.80208 | -76.87070 | 702 ft | 173 kts | 178° |
| 2026-04-25 17:21 | 38.78946 | -76.87073 | 1498 ft | 190 kts | 177° |
| 2026-04-25 17:21 | 38.77549 | -76.87078 | 2166 ft | 209 kts | 177° |
| 2026-04-25 17:22 | 38.76019 | -76.87076 | 2672 ft | 234 kts | 176° |
| 2026-04-25 17:22 | 38.75452 | -76.87077 | 2802 ft | 245 kts | 177° |
| 2026-04-25 17:22 | 38.72621 | -76.87163 | 4553 ft | 248 kts | 180° |
| 2026-04-25 17:22 | 38.70852 | -76.87279 | 5388 ft | 260 kts | 182° |
| 2026-04-25 17:23 | 38.69055 | -76.87383 | 6384 ft | 264 kts | 182° |
| 2026-04-25 17:23 | 38.67200 | -76.87472 | 7436 ft | 269 kts | 183° |
| 2026-04-25 17:23 | 38.65301 | -76.87551 | 8459 ft | 276 kts | 184° |
| 2026-04-25 17:23 | 38.63357 | -76.87645 | 9471 ft | 283 kts | 188° |
| 2026-04-25 17:24 | 38.61503 | -76.88420 | 10526 ft | 281 kts | 214° |
| 2026-04-25 17:24 | 38.60113 | -76.90149 | 11608 ft | 280 kts | 238° |
| 2026-04-25 17:24 | 38.59370 | -76.92428 | 12682 ft | 280 kts | 259° |
| 2026-04-25 17:24 | 38.59102 | -76.94914 | 13708 ft | 285 kts | 263° |
| 2026-04-25 17:25 | 38.58896 | -76.97464 | 14673 ft | 291 kts | 264° |
| 2026-04-25 17:25 | 38.58696 | -77.00065 | 15686 ft | 296 kts | 264° |
| 2026-04-25 17:25 | 38.58488 | -77.02693 | 16693 ft | 300 kts | 264° |
| 2026-04-25 17:25 | 38.58270 | -77.05333 | 17624 ft | 305 kts | 264° |
| 2026-04-25 17:26 | 38.58040 | -77.08054 | 18570 ft | 310 kts | 264° |
| 2026-04-25 17:26 | 38.57801 | -77.10814 | 19502 ft | 314 kts | 264° |
| 2026-04-25 17:26 | 38.57559 | -77.13604 | 20420 ft | 318 kts | 264° |
| 2026-04-25 17:26 | 38.57458 | -77.16441 | 21293 ft | 322 kts | 275° |
| 2026-04-25 17:27 | 38.57731 | -77.19307 | 22139 ft | 327 kts | 278° |
| 2026-04-25 17:27 | 38.58074 | -77.22194 | 22977 ft | 331 kts | 278° |
| 2026-04-25 17:27 | 38.58306 | -77.24131 | 23511 ft | 334 kts | 278° |
| 2026-04-25 17:27 | 38.58539 | -77.26120 | 24047 ft | 337 kts | 278° |
| 2026-04-25 17:28 | 38.58982 | -77.30079 | 25101 ft | 342 kts | 278° |
| 2026-04-25 17:28 | 38.59309 | -77.33102 | 25895 ft | 345 kts | 277° |
| 2026-04-25 17:28 | 38.59631 | -77.36153 | 26669 ft | 347 kts | 277° |
| 2026-04-25 17:28 | 38.59953 | -77.39220 | 27411 ft | 350 kts | 277° |
| 2026-04-25 17:29 | 38.60241 | -77.42320 | 28110 ft | 353 kts | 271° |
| 2026-04-25 17:29 | 38.59990 | -77.45456 | 28647 ft | 362 kts | 256° |
| 2026-04-25 17:29 | 38.59097 | -77.48552 | 28756 ft | 381 kts | 249° |
| 2026-04-25 17:29 | 38.58018 | -77.51735 | 28859 ft | 398 kts | 248° |
| 2026-04-25 17:30 | 38.56867 | -77.55035 | 28965 ft | 412 kts | 248° |
| 2026-04-25 17:30 | 38.55698 | -77.58390 | 29124 ft | 423 kts | 248° |
| 2026-04-25 17:30 | 38.54503 | -77.61857 | 29509 ft | 428 kts | 248° |
| 2026-04-25 17:30 | 38.53313 | -77.65343 | 30021 ft | 429 kts | 248° |
| 2026-04-25 17:31 | 38.52124 | -77.68846 | 30509 ft | 430 kts | 249° |
| 2026-04-25 17:31 | 38.50936 | -77.72358 | 30962 ft | 431 kts | 249° |
| 2026-04-25 17:31 | 38.49748 | -77.75873 | 31493 ft | 430 kts | 249° |
| 2026-04-25 17:31 | 38.48563 | -77.79373 | 32047 ft | 428 kts | 249° |
| 2026-04-25 17:32 | 38.47388 | -77.82841 | 32586 ft | 425 kts | 249° |
| 2026-04-25 17:32 | 38.46213 | -77.86303 | 33096 ft | 423 kts | 249° |
| 2026-04-25 17:32 | 38.45042 | -77.89737 | 33600 ft | 421 kts | 248° |
| 2026-04-25 17:32 | 38.43614 | -77.93010 | 34074 ft | 423 kts | 240° |
| 2026-04-25 17:33 | 38.41933 | -77.96081 | 34579 ft | 422 kts | 238° |
| 2026-04-25 17:33 | 38.40196 | -77.99103 | 34991 ft | 421 kts | 237° |
| 2026-04-25 17:33 | 38.38460 | -78.02105 | 35365 ft | 421 kts | 238° |
| 2026-04-25 17:33 | 38.36729 | -78.05128 | 35719 ft | 421 kts | 238° |
| 2026-04-25 17:34 | 38.35024 | -78.08144 | 36101 ft | 419 kts | 238° |
| 2026-04-25 17:34 | 38.33331 | -78.11166 | 36454 ft | 418 kts | 238° |
| 2026-04-25 17:34 | 38.31665 | -78.14154 | 36744 ft | 419 kts | 238° |
| 2026-04-25 17:34 | 38.29985 | -78.17174 | 37141 ft | 416 kts | 238° |
| 2026-04-25 17:35 | 38.28317 | -78.20167 | 37620 ft | 411 kts | 238° |
| 2026-04-25 17:35 | 38.26669 | -78.23123 | 38027 ft | 408 kts | 238° |
| 2026-04-25 17:35 | 38.25027 | -78.26063 | 38365 ft | 406 kts | 238° |
| 2026-04-25 17:35 | 38.23391 | -78.28992 | 38635 ft | 406 kts | 238° |
| 2026-04-25 17:36 | 38.21753 | -78.31923 | 38866 ft | 407 kts | 238° |
| 2026-04-25 17:36 | 38.20114 | -78.34851 | 39116 ft | 406 kts | 238° |
| 2026-04-25 17:36 | 38.18475 | -78.37774 | 39389 ft | 405 kts | 238° |
| 2026-04-25 17:36 | 38.17026 | -78.40826 | 39521 ft | 403 kts | 250° |
| 2026-04-25 17:37 | 38.15981 | -78.44132 | 39684 ft | 403 kts | 251° |
| 2026-04-25 17:37 | 38.14983 | -78.47422 | 39905 ft | 404 kts | 252° |
| 2026-04-25 17:37 | 38.12944 | -78.54161 | 39924 ft | 410 kts | 251° |
| 2026-04-25 17:38 | 38.11209 | -78.59790 | 39910 ft | 406 kts | 251° |
| 2026-04-25 17:38 | 38.08801 | -78.67494 | 39913 ft | 402 kts | 251° |
| 2026-04-25 17:39 | 38.06734 | -78.74072 | 39899 ft | 400 kts | 251° |
| 2026-04-25 17:39 | 38.04671 | -78.80621 | 39895 ft | 399 kts | 251° |
| 2026-04-25 17:40 | 38.02606 | -78.87162 | 39893 ft | 399 kts | 251° |
| 2026-04-25 17:40 | 38.00547 | -78.93665 | 39894 ft | 400 kts | 251° |
| 2026-04-25 17:41 | 37.98470 | -79.00212 | 39886 ft | 401 kts | 251° |
| 2026-04-25 17:41 | 37.96378 | -79.06792 | 39895 ft | 403 kts | 250° |
| 2026-04-25 17:42 | 37.94269 | -79.13412 | 39897 ft | 406 kts | 250° |
| 2026-04-25 17:42 | 37.92143 | -79.20068 | 39895 ft | 409 kts | 250° |
| 2026-04-25 17:43 | 37.90004 | -79.26754 | 39907 ft | 410 kts | 250° |
| 2026-04-25 17:43 | 37.87884 | -79.33484 | 39909 ft | 410 kts | 255° |
| 2026-04-25 17:44 | 37.86674 | -79.40462 | 39916 ft | 409 kts | 261° |
| 2026-04-25 17:44 | 37.85680 | -79.47557 | 39928 ft | 408 kts | 261° |
| 2026-04-25 17:45 | 37.84825 | -79.53478 | 39936 ft | 408 kts | 261° |
| 2026-04-25 17:45 | 37.83591 | -79.61666 | 39944 ft | 407 kts | 260° |
| 2026-04-25 17:46 | 37.82508 | -79.68681 | 39948 ft | 406 kts | 260° |
| 2026-04-25 17:46 | 37.81416 | -79.75684 | 39948 ft | 405 kts | 260° |
| 2026-04-25 17:47 | 37.80320 | -79.82679 | 39953 ft | 405 kts | 260° |
| 2026-04-25 17:47 | 37.79224 | -79.89657 | 39955 ft | 405 kts | 260° |
| 2026-04-25 17:48 | 37.77581 | -80.00067 | 39958 ft | 404 kts | 260° |
| 2026-04-25 17:49 | 37.76475 | -80.07034 | 39953 ft | 404 kts | 260° |
| 2026-04-25 17:49 | 37.75367 | -80.14000 | 39961 ft | 404 kts | 260° |
| 2026-04-25 17:50 | 37.74253 | -80.20960 | 39947 ft | 405 kts | 260° |
| 2026-04-25 17:50 | 37.73134 | -80.27934 | 39959 ft | 405 kts | 260° |
| 2026-04-25 17:51 | 37.72010 | -80.34908 | 39956 ft | 405 kts | 260° |
| 2026-04-25 17:51 | 37.70881 | -80.41889 | 39967 ft | 405 kts | 259° |
| 2026-04-25 17:52 | 37.69754 | -80.48811 | 39961 ft | 406 kts | 259° |
| 2026-04-25 17:52 | 37.68616 | -80.55781 | 39965 ft | 406 kts | 259° |
| 2026-04-25 17:53 | 37.67473 | -80.62764 | 39962 ft | 406 kts | 259° |
| 2026-04-25 17:53 | 37.66327 | -80.69739 | 39964 ft | 406 kts | 259° |
| 2026-04-25 17:54 | 37.65178 | -80.76702 | 39966 ft | 405 kts | 259° |
| 2026-04-25 17:54 | 37.64026 | -80.83656 | 39959 ft | 404 kts | 259° |
| 2026-04-25 17:55 | 37.62872 | -80.90593 | 39961 ft | 404 kts | 259° |
| 2026-04-25 17:55 | 37.61716 | -80.97521 | 39967 ft | 403 kts | 259° |
| 2026-04-25 17:56 | 37.60558 | -81.04435 | 39969 ft | 402 kts | 259° |
| 2026-04-25 17:56 | 37.59399 | -81.11323 | 39971 ft | 402 kts | 259° |
| 2026-04-25 17:57 | 37.58242 | -81.18172 | 39977 ft | 401 kts | 259° |
| 2026-04-25 17:57 | 37.57076 | -81.25049 | 39979 ft | 401 kts | 259° |
| 2026-04-25 17:58 | 37.55905 | -81.31929 | 39994 ft | 401 kts | 259° |
| 2026-04-25 17:58 | 37.54734 | -81.38796 | 39999 ft | 401 kts | 259° |
| 2026-04-25 17:59 | 37.53557 | -81.45659 | 40006 ft | 400 kts | 259° |
| 2026-04-25 17:59 | 37.52380 | -81.52506 | 40012 ft | 400 kts | 258° |
| 2026-04-25 18:00 | 37.51206 | -81.59303 | 40018 ft | 400 kts | 258° |
| 2026-04-25 18:00 | 37.50019 | -81.66155 | 40013 ft | 400 kts | 258° |
| 2026-04-25 18:01 | 37.48831 | -81.72986 | 40010 ft | 399 kts | 258° |
| 2026-04-25 18:01 | 37.47639 | -81.79820 | 40007 ft | 398 kts | 258° |
| 2026-04-25 18:02 | 37.46470 | -81.86479 | 39993 ft | 380 kts | 258° |
| 2026-04-25 18:02 | 37.45348 | -81.92859 | 39988 ft | 371 kts | 258° |
| 2026-04-25 18:03 | 37.44227 | -81.99215 | 39988 ft | 371 kts | 258° |
| 2026-04-25 18:03 | 37.43101 | -82.05573 | 39977 ft | 372 kts | 257° |
| 2026-04-25 18:04 | 37.41972 | -82.11944 | 39971 ft | 374 kts | 258° |
| 2026-04-25 18:04 | 37.40841 | -82.18309 | 39977 ft | 375 kts | 257° |
| 2026-04-25 18:05 | 37.39693 | -82.24734 | 39984 ft | 377 kts | 257° |
| 2026-04-25 18:05 | 37.38536 | -82.31180 | 39975 ft | 378 kts | 257° |
| 2026-04-25 18:06 | 37.37375 | -82.37635 | 39977 ft | 379 kts | 257° |
| 2026-04-25 18:06 | 37.36207 | -82.44109 | 39965 ft | 381 kts | 257° |
| 2026-04-25 18:07 | 37.35031 | -82.50603 | 39975 ft | 381 kts | 257° |
| 2026-04-25 18:07 | 37.33856 | -82.57056 | 39966 ft | 381 kts | 257° |
| 2026-04-25 18:08 | 37.32675 | -82.63538 | 39965 ft | 380 kts | 257° |
| 2026-04-25 18:08 | 37.31492 | -82.70005 | 39979 ft | 380 kts | 257° |
| 2026-04-25 18:09 | 37.30306 | -82.76472 | 39961 ft | 380 kts | 257° |
| 2026-04-25 18:09 | 37.29116 | -82.82941 | 39976 ft | 380 kts | 257° |
| 2026-04-25 18:10 | 37.27924 | -82.89391 | 39967 ft | 380 kts | 257° |
| 2026-04-25 18:10 | 37.26736 | -82.95808 | 39982 ft | 379 kts | 257° |
| 2026-04-25 18:11 | 37.25539 | -83.02256 | 39958 ft | 379 kts | 257° |
| 2026-04-25 18:11 | 37.24659 | -83.08775 | 39963 ft | 379 kts | 261° |
| 2026-04-25 18:12 | 37.23908 | -83.15326 | 39966 ft | 379 kts | 261° |
| 2026-04-25 18:12 | 37.23150 | -83.21868 | 39961 ft | 379 kts | 261° |
| 2026-04-25 18:13 | 37.22373 | -83.28420 | 39962 ft | 379 kts | 261° |
| 2026-04-25 18:13 | 37.21594 | -83.34929 | 39962 ft | 379 kts | 261° |
| 2026-04-25 18:14 | 37.20407 | -83.44753 | 39962 ft | 380 kts | 260° |
| 2026-04-25 18:14 | 37.19610 | -83.51303 | 39963 ft | 380 kts | 260° |
| 2026-04-25 18:15 | 37.18809 | -83.57861 | 39966 ft | 381 kts | 260° |
| 2026-04-25 18:15 | 37.18006 | -83.64396 | 39957 ft | 381 kts | 260° |
| 2026-04-25 18:16 | 37.17195 | -83.70974 | 39956 ft | 382 kts | 260° |
| 2026-04-25 18:17 | 37.16109 | -83.79739 | 39950 ft | 382 kts | 260° |
| 2026-04-25 18:17 | 37.15296 | -83.86260 | 39953 ft | 382 kts | 260° |
| 2026-04-25 18:18 | 37.14477 | -83.92799 | 39764 ft | 374 kts | 260° |
| 2026-04-25 18:18 | 37.14074 | -83.96010 | 39208 ft | 372 kts | 260° |
| 2026-04-25 18:18 | 37.13671 | -83.99208 | 38595 ft | 371 kts | 259° |
| 2026-04-25 18:18 | 37.13268 | -84.02393 | 37968 ft | 370 kts | 259° |
| 2026-04-25 18:19 | 37.12863 | -84.05588 | 37132 ft | 374 kts | 259° |
| 2026-04-25 18:19 | 37.12451 | -84.08829 | 36250 ft | 379 kts | 259° |
| 2026-04-25 18:19 | 37.12034 | -84.12106 | 35312 ft | 384 kts | 259° |
| 2026-04-25 18:19 | 37.11608 | -84.15439 | 34236 ft | 392 kts | 258° |
| 2026-04-25 18:20 | 37.11179 | -84.18796 | 33101 ft | 400 kts | 258° |
| 2026-04-25 18:20 | 37.10732 | -84.22276 | 31862 ft | 409 kts | 258° |
| 2026-04-25 18:20 | 37.10276 | -84.25834 | 30614 ft | 417 kts | 258° |
| 2026-04-25 18:20 | 37.09811 | -84.29445 | 29385 ft | 422 kts | 258° |
| 2026-04-25 18:21 | 37.09340 | -84.33101 | 28065 ft | 428 kts | 258° |
| 2026-04-25 18:21 | 37.08865 | -84.36786 | 27173 ft | 425 kts | 259° |
| 2026-04-25 18:21 | 37.08396 | -84.40415 | 26405 ft | 423 kts | 259° |
| 2026-04-25 18:21 | 37.07915 | -84.44120 | 25675 ft | 436 kts | 259° |
| 2026-04-25 18:22 | 37.07423 | -84.47890 | 24921 ft | 437 kts | 259° |
| 2026-04-25 18:22 | 37.07100 | -84.50369 | 24418 ft | 433 kts | 259° |
| 2026-04-25 18:22 | 37.06455 | -84.55308 | 23476 ft | 428 kts | 260° |
| 2026-04-25 18:22 | 37.05973 | -84.58983 | 23243 ft | 428 kts | 260° |
| 2026-04-25 18:23 | 37.05487 | -84.62671 | 23131 ft | 430 kts | 260° |
| 2026-04-25 18:23 | 37.05001 | -84.66357 | 22992 ft | 427 kts | 260° |
| 2026-04-25 18:23 | 37.04522 | -84.69984 | 22936 ft | 428 kts | 260° |
| 2026-04-25 18:23 | 37.04037 | -84.73654 | 22922 ft | 426 kts | 260° |
| 2026-04-25 18:24 | 37.03545 | -84.77359 | 22928 ft | 428 kts | 260° |
| 2026-04-25 18:24 | 37.03062 | -84.80986 | 22923 ft | 428 kts | 259° |
| 2026-04-25 18:24 | 37.02293 | -84.84567 | 22923 ft | 427 kts | 246° |
| 2026-04-25 18:24 | 37.00851 | -84.87806 | 22945 ft | 427 kts | 239° |
| 2026-04-25 18:25 | 36.99281 | -84.90962 | 22931 ft | 427 kts | 239° |
| 2026-04-25 18:25 | 36.97705 | -84.94108 | 22930 ft | 427 kts | 239° |
| 2026-04-25 18:25 | 36.96137 | -84.97256 | 22933 ft | 427 kts | 239° |
| 2026-04-25 18:25 | 36.94571 | -85.00422 | 22936 ft | 428 kts | 239° |
| 2026-04-25 18:26 | 36.93015 | -85.03588 | 22935 ft | 428 kts | 239° |
| 2026-04-25 18:26 | 36.91462 | -85.06761 | 22935 ft | 428 kts | 239° |
| 2026-04-25 18:26 | 36.89904 | -85.09948 | 22936 ft | 429 kts | 239° |
| 2026-04-25 18:26 | 36.88348 | -85.13131 | 22938 ft | 429 kts | 239° |
| 2026-04-25 18:27 | 36.86793 | -85.16307 | 22937 ft | 429 kts | 239° |
| 2026-04-25 18:27 | 36.85234 | -85.19490 | 22943 ft | 430 kts | 239° |
| 2026-04-25 18:27 | 36.83692 | -85.22634 | 22946 ft | 430 kts | 239° |
| 2026-04-25 18:27 | 36.82128 | -85.25820 | 22942 ft | 430 kts | 239° |
| 2026-04-25 18:28 | 36.80562 | -85.29007 | 22937 ft | 430 kts | 239° |
| 2026-04-25 18:28 | 36.78999 | -85.32186 | 22934 ft | 430 kts | 239° |
| 2026-04-25 18:28 | 36.77431 | -85.35370 | 22932 ft | 430 kts | 239° |
| 2026-04-25 18:29 | 36.74327 | -85.41677 | 22859 ft | 412 kts | 239° |
| 2026-04-25 18:29 | 36.72902 | -85.44672 | 22732 ft | 392 kts | 240° |
| 2026-04-25 18:30 | 36.69020 | -85.52976 | 21592 ft | 358 kts | 240° |
| 2026-04-25 18:30 | 36.67803 | -85.55573 | 21405 ft | 344 kts | 240° |
| 2026-04-25 18:30 | 36.66620 | -85.58086 | 21269 ft | 329 kts | 240° |
| 2026-04-25 18:30 | 36.65478 | -85.60510 | 21224 ft | 312 kts | 240° |
| 2026-04-25 18:31 | 36.64417 | -85.62757 | 21144 ft | 299 kts | 240° |
| 2026-04-25 18:31 | 36.63382 | -85.64949 | 20783 ft | 289 kts | 240° |
| 2026-04-25 18:31 | 36.62369 | -85.67094 | 20263 ft | 285 kts | 240° |
| 2026-04-25 18:31 | 36.61353 | -85.69244 | 19306 ft | 294 kts | 240° |
| 2026-04-25 18:32 | 36.60293 | -85.71489 | 18221 ft | 307 kts | 240° |
| 2026-04-25 18:32 | 36.59235 | -85.73723 | 18118 ft | 301 kts | 240° |
| 2026-04-25 18:32 | 36.58108 | -85.76105 | 17923 ft | 337 kts | 240° |
| 2026-04-25 18:32 | 36.56892 | -85.78669 | 17625 ft | 346 kts | 240° |
| 2026-04-25 18:33 | 36.55664 | -85.81252 | 17323 ft | 347 kts | 240° |
| 2026-04-25 18:33 | 36.54442 | -85.83819 | 17091 ft | 344 kts | 240° |
| 2026-04-25 18:33 | 36.53225 | -85.86378 | 16811 ft | 343 kts | 240° |
| 2026-04-25 18:33 | 36.52013 | -85.88928 | 16532 ft | 343 kts | 240° |
| 2026-04-25 18:34 | 36.50800 | -85.91477 | 16248 ft | 342 kts | 240° |
| 2026-04-25 18:34 | 36.49603 | -85.93990 | 15971 ft | 342 kts | 240° |
| 2026-04-25 18:34 | 36.48376 | -85.96561 | 15682 ft | 341 kts | 240° |
| 2026-04-25 18:34 | 36.47178 | -85.99069 | 15390 ft | 341 kts | 240° |
| 2026-04-25 18:35 | 36.45967 | -86.01604 | 15103 ft | 341 kts | 240° |
| 2026-04-25 18:35 | 36.44759 | -86.04133 | 14817 ft | 340 kts | 240° |
| 2026-04-25 18:35 | 36.43555 | -86.06650 | 14533 ft | 339 kts | 240° |
| 2026-04-25 18:35 | 36.42349 | -86.09163 | 14253 ft | 338 kts | 240° |
| 2026-04-25 18:36 | 36.41148 | -86.11672 | 13958 ft | 338 kts | 240° |
| 2026-04-25 18:36 | 36.39950 | -86.14170 | 13679 ft | 336 kts | 240° |
| 2026-04-25 18:36 | 36.38753 | -86.16664 | 13398 ft | 336 kts | 240° |
| 2026-04-25 18:36 | 36.37559 | -86.19144 | 13120 ft | 334 kts | 240° |
| 2026-04-25 18:37 | 36.36370 | -86.21612 | 12835 ft | 332 kts | 240° |
| 2026-04-25 18:37 | 36.35187 | -86.24075 | 12549 ft | 332 kts | 240° |
| 2026-04-25 18:37 | 36.34005 | -86.26534 | 12270 ft | 332 kts | 240° |
| 2026-04-25 18:37 | 36.32822 | -86.28992 | 11997 ft | 331 kts | 240° |
| 2026-04-25 18:38 | 36.31644 | -86.31435 | 11703 ft | 330 kts | 240° |
| 2026-04-25 18:38 | 36.30465 | -86.33884 | 11432 ft | 330 kts | 239° |
| 2026-04-25 18:38 | 36.29304 | -86.36292 | 11161 ft | 329 kts | 239° |
| 2026-04-25 18:38 | 36.28141 | -86.38699 | 10884 ft | 320 kts | 239° |
| 2026-04-25 18:39 | 36.27019 | -86.41018 | 10604 ft | 308 kts | 239° |
| 2026-04-25 18:39 | 36.25940 | -86.43250 | 10339 ft | 294 kts | 239° |
| 2026-04-25 18:39 | 36.24901 | -86.45399 | 10103 ft | 287 kts | 239° |
| 2026-04-25 18:39 | 36.23891 | -86.47483 | 9863 ft | 278 kts | 239° |
| 2026-04-25 18:40 | 36.22902 | -86.49521 | 9634 ft | 274 kts | 239° |
| 2026-04-25 18:40 | 36.21757 | -86.51356 | 9385 ft | 268 kts | 219° |
| 2026-04-25 18:40 | 36.20166 | -86.52452 | 9194 ft | 265 kts | 201° |
| 2026-04-25 18:40 | 36.18419 | -86.53174 | 8995 ft | 265 kts | 198° |
| 2026-04-25 18:41 | 36.16641 | -86.53844 | 8777 ft | 269 kts | 198° |
| 2026-04-25 18:41 | 36.14854 | -86.54532 | 8537 ft | 268 kts | 198° |
| 2026-04-25 18:41 | 36.13085 | -86.55228 | 8302 ft | 263 kts | 198° |
| 2026-04-25 18:41 | 36.11359 | -86.55916 | 8100 ft | 256 kts | 198° |
| 2026-04-25 18:42 | 36.09696 | -86.56573 | 8010 ft | 245 kts | 198° |
| 2026-04-25 18:42 | 36.09150 | -86.56783 | 7998 ft | 241 kts | 197° |
| 2026-04-25 18:42 | 36.06516 | -86.57777 | 7512 ft | 239 kts | 197° |
| 2026-04-25 18:42 | 36.04928 | -86.58372 | 7233 ft | 238 kts | 197° |
| 2026-04-25 18:43 | 36.03349 | -86.58957 | 6943 ft | 237 kts | 197° |
| 2026-04-25 18:43 | 36.01774 | -86.59547 | 6655 ft | 236 kts | 198° |
| 2026-04-25 18:43 | 36.00211 | -86.60131 | 6382 ft | 234 kts | 197° |
| 2026-04-25 18:43 | 35.98652 | -86.60697 | 6094 ft | 233 kts | 197° |
| 2026-04-25 18:44 | 35.97102 | -86.61273 | 5813 ft | 232 kts | 197° |
| 2026-04-25 18:44 | 35.95562 | -86.61874 | 5536 ft | 230 kts | 198° |
| 2026-04-25 18:44 | 35.94057 | -86.62459 | 5258 ft | 229 kts | 197° |
| 2026-04-25 18:44 | 35.92532 | -86.63024 | 4974 ft | 229 kts | 197° |
| 2026-04-25 18:45 | 35.91007 | -86.63585 | 4679 ft | 228 kts | 197° |
| 2026-04-25 18:45 | 35.89488 | -86.64140 | 4390 ft | 228 kts | 196° |
| 2026-04-25 18:45 | 35.87985 | -86.64747 | 4104 ft | 227 kts | 209° |
| 2026-04-25 18:45 | 35.86891 | -86.66104 | 4022 ft | 228 kts | 244° |
| 2026-04-25 18:46 | 35.86582 | -86.67998 | 3998 ft | 227 kts | 277° |
| 2026-04-25 18:46 | 35.87087 | -86.69815 | 4002 ft | 225 kts | 297° |
| 2026-04-25 18:46 | 35.87813 | -86.71526 | 3998 ft | 226 kts | 298° |
| 2026-04-25 18:46 | 35.88571 | -86.73224 | 3988 ft | 226 kts | 303° |
| 2026-04-25 18:47 | 35.89723 | -86.74509 | 3991 ft | 224 kts | 332° |
| 2026-04-25 18:47 | 35.91124 | -86.75352 | 3983 ft | 224 kts | 335° |
| 2026-04-25 18:47 | 35.92591 | -86.75982 | 3961 ft | 224 kts | 357° |
| 2026-04-25 18:47 | 35.94084 | -86.75626 | 3988 ft | 222 kts | 19° |
| 2026-04-25 18:48 | 35.95562 | -86.75022 | 3890 ft | 227 kts | 17° |
| 2026-04-25 18:48 | 35.97076 | -86.74436 | 3583 ft | 227 kts | 17° |
| 2026-04-25 18:48 | 35.98575 | -86.73850 | 3296 ft | 224 kts | 18° |
| 2026-04-25 18:48 | 36.00045 | -86.73270 | 3006 ft | 219 kts | 18° |
| 2026-04-25 18:49 | 36.01456 | -86.72713 | 2728 ft | 204 kts | 18° |
| 2026-04-25 18:49 | 36.02770 | -86.72194 | 2457 ft | 195 kts | 18° |
| 2026-04-25 18:49 | 36.04035 | -86.71696 | 2198 ft | 184 kts | 17° |
| 2026-04-25 18:49 | 36.05216 | -86.71231 | 1980 ft | 173 kts | 18° |
| 2026-04-25 18:50 | 36.06307 | -86.70799 | 1769 ft | 153 kts | 17° |
| 2026-04-25 18:50 | 36.07253 | -86.70428 | 1528 ft | 136 kts | 17° |
| 2026-04-25 18:50 | 36.08143 | -86.70094 | 1317 ft | 130 kts | 18° |
| 2026-04-25 18:50 | 36.08984 | -86.69764 | 1202 ft | 129 kts | 19° |
| 2026-04-25 18:51 | 36.09840 | -86.69408 | 1059 ft | 130 kts | 18° |
| 2026-04-25 18:51 | 36.10132 | -86.69292 | 1000 ft | 130 kts | 17° |
| 2026-04-25 18:51 | 36.11576 | -86.68727 | 669 ft | 132 kts | 17° |
| 2026-04-25 18:51 | 36.12444 | -86.68386 | 571 ft | 123 kts | 18° |
| 2026-04-25 18:52 | 36.13057 | -86.68144 | 575 ft | 61 kts | 18° |
| 2026-04-25 18:52 | 36.13188 | -86.68055 | 575 ft | 12 kts | 90° |
| 2026-04-25 18:52 | 36.13125 | -86.67963 | 576 ft | 17 kts | 137° |
| 2026-04-25 18:52 | 36.13009 | -86.67975 | 575 ft | 20 kts | 198° |
| 2026-04-25 18:53 | 36.12874 | -86.68028 | 575 ft | 20 kts | 198° |
| 2026-04-25 18:53 | 36.12736 | -86.68081 | 578 ft | 25 kts | 196° |
| 2026-04-25 18:53 | 36.12544 | -86.68149 | 573 ft | 30 kts | 196° |
| 2026-04-25 18:53 | 36.12349 | -86.68219 | 577 ft | 28 kts | 196° |
| 2026-04-25 18:54 | 36.11996 | -86.68346 | 575 ft | 24 kts | 196° |
| 2026-04-25 18:54 | 36.11837 | -86.68403 | 581 ft | 23 kts | 196° |
| 2026-04-25 18:54 | 36.11684 | -86.68455 | 581 ft | 21 kts | 195° |
| 2026-04-25 18:55 | 36.11569 | -86.68434 | 579 ft | 18 kts | 153° |
| 2026-04-25 18:55 | 36.11461 | -86.68366 | 579 ft | 17 kts | 153° |
| 2026-04-25 18:55 | 36.11357 | -86.68300 | 577 ft | 16 kts | 153° |
| 2026-04-25 18:55 | 36.11258 | -86.68236 | 576 ft | 16 kts | 152° |
| 2026-04-25 18:56 | 36.11172 | -86.68178 | 576 ft | 9 kts | 147° |
| 2026-04-25 18:56 | 36.11152 | -86.68118 | 576 ft | 8 kts | 100° |
| 2026-04-25 18:56 | 36.11143 | -86.68049 | 574 ft | 8 kts | 99° |
| 2026-04-25 18:56 | 36.11134 | -86.67982 | 574 ft | 8 kts | 99° |
| 2026-04-25 18:57 | 36.11125 | -86.67917 | 574 ft | 8 kts | 101° |
| 2026-04-25 18:57 | 36.11114 | -86.67840 | 574 ft | 11 kts | 99° |
| 2026-04-25 18:57 | 36.11079 | -86.67772 | 574 ft | 10 kts | 174° |
| 2026-04-25 18:57 | 36.11055 | -86.67774 | 574 ft | 10 kts | 185° |
| 2026-04-25 18:58 | 36.10949 | -86.67778 | 579 ft | 8 kts | 146° |
| 2026-04-25 18:58 | 36.10921 | -86.67675 | 574 ft | 4 kts | 45° |
| 2026-04-25 18:58 | 36.10942 | -86.67659 | 574 ft | 3 kts | 27° |
| 2026-04-25 18:59 | 36.10986 | -86.67633 | 577 ft | 6 kts | 26° |
| 2026-04-25 18:59 | 36.11014 | -86.67615 | 574 ft | 0 kts | 26° |